sensor_id;sensor_type;location;lat;lon;timestamp;P1;durP1;ratioP1;P2;durP2;ratioP2
49440;SDS011;35317;51.978;6.296;2023-01-28T00:03:57;18.67;;;12.70;;
49440;SDS011;35317;51.978;6.296;2023-01-28T00:08:58;21.63;;;13.35;;
49440;SDS011;35317;51.978;6.296;2023-01-28T00:13:59;20.48;;;13.02;;
49440;SDS011;35317;51.978;6.296;2023-01-28T00:19:00;20.75;;;13.45;;
49440;SDS011;35317;51.978;6.296;2023-01-28T00:24:00;21.08;;;13.57;;
49440;SDS011;35317;51.978;6.296;2023-01-28T00:29:01;19.13;;;13.02;;
49440;SDS011;35317;51.978;6.296;2023-01-28T00:34:02;19.45;;;13.45;;
49440;SDS011;35317;51.978;6.296;2023-01-28T00:39:03;18.83;;;12.32;;
49440;SDS011;35317;51.978;6.296;2023-01-28T00:44:04;17.73;;;11.95;;
49440;SDS011;35317;51.978;6.296;2023-01-28T00:49:05;16.45;;;11.50;;
49440;SDS011;35317;51.978;6.296;2023-01-28T00:54:06;18.27;;;11.93;;
49440;SDS011;35317;51.978;6.296;2023-01-28T00:59:07;18.70;;;11.85;;
49440;SDS011;35317;51.978;6.296;2023-01-28T01:04:07;15.98;;;10.60;;
49440;SDS011;35317;51.978;6.296;2023-01-28T01:09:09;17.73;;;11.82;;
49440;SDS011;35317;51.978;6.296;2023-01-28T01:14:11;15.85;;;10.88;;
49440;SDS011;35317;51.978;6.296;2023-01-28T01:19:12;15.32;;;10.45;;
49440;SDS011;35317;51.978;6.296;2023-01-28T01:24:12;13.30;;;9.55;;
49440;SDS011;35317;51.978;6.296;2023-01-28T01:29:13;14.75;;;10.45;;
49440;SDS011;35317;51.978;6.296;2023-01-28T01:34:14;15.82;;;10.32;;
49440;SDS011;35317;51.978;6.296;2023-01-28T01:39:15;14.45;;;10.05;;
49440;SDS011;35317;51.978;6.296;2023-01-28T01:50:03;15.50;;;10.52;;
49440;SDS011;35317;51.978;6.296;2023-01-28T01:55:15;14.13;;;10.05;;
49440;SDS011;35317;51.978;6.296;2023-01-28T02:00:20;13.73;;;9.63;;
49440;SDS011;35317;51.978;6.296;2023-01-28T02:05:21;17.42;;;10.90;;
49440;SDS011;35317;51.978;6.296;2023-01-28T02:10:22;17.13;;;10.90;;
49440;SDS011;35317;51.978;6.296;2023-01-28T02:15:24;15.98;;;11.07;;
49440;SDS011;35317;51.978;6.296;2023-01-28T02:37:16;17.13;;;10.55;;
49440;SDS011;35317;51.978;6.296;2023-01-28T02:42:23;15.98;;;10.38;;
49440;SDS011;35317;51.978;6.296;2023-01-28T02:47:29;14.57;;;10.20;;
49440;SDS011;35317;51.978;6.296;2023-01-28T03:09:02;12.77;;;8.10;;
49440;SDS011;35317;51.978;6.296;2023-01-28T03:14:21;12.90;;;8.55;;
49440;SDS011;35317;51.978;6.296;2023-01-28T03:19:42;12.30;;;8.63;;
49440;SDS011;35317;51.978;6.296;2023-01-28T03:25:03;13.32;;;8.18;;
49440;SDS011;35317;51.978;6.296;2023-01-28T03:30:26;11.70;;;7.80;;
49440;SDS011;35317;51.978;6.296;2023-01-28T03:35:52;12.98;;;8.93;;
49440;SDS011;35317;51.978;6.296;2023-01-28T03:41:18;13.32;;;9.00;;
49440;SDS011;35317;51.978;6.296;2023-01-28T03:46:21;11.55;;;8.25;;
49440;SDS011;35317;51.978;6.296;2023-01-28T03:51:22;12.75;;;8.93;;
49440;SDS011;35317;51.978;6.296;2023-01-28T03:56:23;12.75;;;8.82;;
49440;SDS011;35317;51.978;6.296;2023-01-28T04:01:25;14.35;;;9.50;;
49440;SDS011;35317;51.978;6.296;2023-01-28T04:06:26;15.38;;;10.27;;
49440;SDS011;35317;51.978;6.296;2023-01-28T04:11:28;14.98;;;10.07;;
49440;SDS011;35317;51.978;6.296;2023-01-28T04:16:28;16.73;;;10.45;;
49440;SDS011;35317;51.978;6.296;2023-01-28T04:21:29;14.88;;;9.68;;
49440;SDS011;35317;51.978;6.296;2023-01-28T04:26:30;15.30;;;10.45;;
49440;SDS011;35317;51.978;6.296;2023-01-28T04:31:31;18.85;;;10.07;;
49440;SDS011;35317;51.978;6.296;2023-01-28T04:36:32;14.85;;;9.40;;
49440;SDS011;35317;51.978;6.296;2023-01-28T04:41:32;14.43;;;9.50;;
49440;SDS011;35317;51.978;6.296;2023-01-28T04:46:33;17.60;;;10.75;;
49440;SDS011;35317;51.978;6.296;2023-01-28T04:51:34;15.75;;;9.75;;
49440;SDS011;35317;51.978;6.296;2023-01-28T04:56:35;16.25;;;10.27;;
49440;SDS011;35317;51.978;6.296;2023-01-28T05:01:35;17.90;;;10.65;;
49440;SDS011;35317;51.978;6.296;2023-01-28T05:06:36;15.88;;;10.27;;
49440;SDS011;35317;51.978;6.296;2023-01-28T05:11:37;16.75;;;11.02;;
49440;SDS011;35317;51.978;6.296;2023-01-28T05:16:38;17.08;;;11.07;;
49440;SDS011;35317;51.978;6.296;2023-01-28T05:21:39;18.73;;;11.45;;
49440;SDS011;35317;51.978;6.296;2023-01-28T05:26:39;19.58;;;11.75;;
49440;SDS011;35317;51.978;6.296;2023-01-28T05:31:40;16.70;;;10.75;;
49440;SDS011;35317;51.978;6.296;2023-01-28T05:36:41;17.27;;;10.13;;
49440;SDS011;35317;51.978;6.296;2023-01-28T05:41:42;17.42;;;10.90;;
49440;SDS011;35317;51.978;6.296;2023-01-28T05:46:42;16.52;;;10.65;;
49440;SDS011;35317;51.978;6.296;2023-01-28T05:51:45;16.85;;;10.55;;
49440;SDS011;35317;51.978;6.296;2023-01-28T05:56:47;17.70;;;11.13;;
49440;SDS011;35317;51.978;6.296;2023-01-28T06:01:48;18.98;;;11.93;;
49440;SDS011;35317;51.978;6.296;2023-01-28T06:06:48;19.55;;;11.88;;
49440;SDS011;35317;51.978;6.296;2023-01-28T06:11:49;20.25;;;11.90;;
49440;SDS011;35317;51.978;6.296;2023-01-28T06:16:50;22.05;;;12.85;;
49440;SDS011;35317;51.978;6.296;2023-01-28T06:21:51;23.63;;;13.02;;
49440;SDS011;35317;51.978;6.296;2023-01-28T06:26:52;21.77;;;12.65;;
49440;SDS011;35317;51.978;6.296;2023-01-28T06:31:52;22.42;;;12.70;;
49440;SDS011;35317;51.978;6.296;2023-01-28T06:36:53;21.27;;;12.13;;
49440;SDS011;35317;51.978;6.296;2023-01-28T06:41:54;23.55;;;13.77;;
49440;SDS011;35317;51.978;6.296;2023-01-28T06:46:54;20.25;;;11.95;;
49440;SDS011;35317;51.978;6.296;2023-01-28T06:51:55;24.77;;;13.50;;
49440;SDS011;35317;51.978;6.296;2023-01-28T06:56:56;19.60;;;12.20;;
49440;SDS011;35317;51.978;6.296;2023-01-28T07:01:57;22.42;;;12.45;;
49440;SDS011;35317;51.978;6.296;2023-01-28T07:06:57;22.48;;;13.45;;
49440;SDS011;35317;51.978;6.296;2023-01-28T07:11:58;23.73;;;13.05;;
49440;SDS011;35317;51.978;6.296;2023-01-28T07:16:59;19.65;;;12.15;;
49440;SDS011;35317;51.978;6.296;2023-01-28T07:22:00;20.67;;;12.60;;
49440;SDS011;35317;51.978;6.296;2023-01-28T07:27:02;22.33;;;13.27;;
49440;SDS011;35317;51.978;6.296;2023-01-28T07:32:03;22.10;;;12.82;;
49440;SDS011;35317;51.978;6.296;2023-01-28T07:37:06;22.52;;;13.48;;
49440;SDS011;35317;51.978;6.296;2023-01-28T07:42:06;25.83;;;14.35;;
49440;SDS011;35317;51.978;6.296;2023-01-28T07:47:08;21.77;;;12.60;;
49440;SDS011;35317;51.978;6.296;2023-01-28T07:52:09;24.33;;;14.32;;
49440;SDS011;35317;51.978;6.296;2023-01-28T07:57:10;20.83;;;13.35;;
49440;SDS011;35317;51.978;6.296;2023-01-28T08:02:11;21.88;;;13.23;;
49440;SDS011;35317;51.978;6.296;2023-01-28T08:07:12;23.73;;;13.98;;
49440;SDS011;35317;51.978;6.296;2023-01-28T08:12:13;21.55;;;13.57;;
49440;SDS011;35317;51.978;6.296;2023-01-28T08:17:13;21.48;;;13.18;;
49440;SDS011;35317;51.978;6.296;2023-01-28T08:22:14;33.92;;;14.35;;
49440;SDS011;35317;51.978;6.296;2023-01-28T08:27:15;22.08;;;13.20;;
49440;SDS011;35317;51.978;6.296;2023-01-28T08:32:16;24.60;;;14.32;;
49440;SDS011;35317;51.978;6.296;2023-01-28T08:37:16;20.45;;;13.73;;
49440;SDS011;35317;51.978;6.296;2023-01-28T08:42:17;25.38;;;13.48;;
49440;SDS011;35317;51.978;6.296;2023-01-28T08:47:18;22.23;;;13.88;;
49440;SDS011;35317;51.978;6.296;2023-01-28T08:52:20;21.75;;;13.68;;
49440;SDS011;35317;51.978;6.296;2023-01-28T08:57:21;23.55;;;14.38;;
49440;SDS011;35317;51.978;6.296;2023-01-28T09:02:22;23.33;;;14.88;;
49440;SDS011;35317;51.978;6.296;2023-01-28T09:07:22;21.58;;;14.73;;
49440;SDS011;35317;51.978;6.296;2023-01-28T09:12:23;25.58;;;16.15;;
49440;SDS011;35317;51.978;6.296;2023-01-28T09:17:24;23.42;;;15.52;;
49440;SDS011;35317;51.978;6.296;2023-01-28T09:22:25;21.23;;;14.88;;
49440;SDS011;35317;51.978;6.296;2023-01-28T09:27:26;23.77;;;15.45;;
49440;SDS011;35317;51.978;6.296;2023-01-28T09:32:26;23.00;;;15.82;;
49440;SDS011;35317;51.978;6.296;2023-01-28T09:37:27;20.52;;;14.50;;
49440;SDS011;35317;51.978;6.296;2023-01-28T09:47:43;23.52;;;16.23;;
49440;SDS011;35317;51.978;6.296;2023-01-28T09:52:50;23.43;;;15.27;;
49440;SDS011;35317;51.978;6.296;2023-01-28T09:57:57;19.13;;;13.63;;
49440;SDS011;35317;51.978;6.296;2023-01-28T10:03:00;25.63;;;15.63;;
49440;SDS011;35317;51.978;6.296;2023-01-28T10:08:30;20.70;;;13.73;;
49440;SDS011;35317;51.978;6.296;2023-01-28T10:18:54;21.13;;;13.75;;
49440;SDS011;35317;51.978;6.296;2023-01-28T10:24:17;19.90;;;13.73;;
49440;SDS011;35317;51.978;6.296;2023-01-28T10:29:38;19.48;;;13.73;;
49440;SDS011;35317;51.978;6.296;2023-01-28T10:34:42;19.35;;;12.88;;
49440;SDS011;35317;51.978;6.296;2023-01-28T10:39:43;17.75;;;12.23;;
49440;SDS011;35317;51.978;6.296;2023-01-28T10:44:45;17.17;;;12.45;;
49440;SDS011;35317;51.978;6.296;2023-01-28T10:49:48;18.23;;;12.93;;
49440;SDS011;35317;51.978;6.296;2023-01-28T10:55:03;18.10;;;13.05;;
49440;SDS011;35317;51.978;6.296;2023-01-28T11:00:12;18.08;;;13.30;;
49440;SDS011;35317;51.978;6.296;2023-01-28T11:05:30;19.70;;;13.43;;
49440;SDS011;35317;51.978;6.296;2023-01-28T11:10:35;18.30;;;11.43;;
49440;SDS011;35317;51.978;6.296;2023-01-28T11:15:39;17.98;;;12.13;;
49440;SDS011;35317;51.978;6.296;2023-01-28T11:21:37;18.92;;;13.18;;
49440;SDS011;35317;51.978;6.296;2023-01-28T11:31:21;18.33;;;12.82;;
49440;SDS011;35317;51.978;6.296;2023-01-28T11:36:27;19.05;;;12.60;;
49440;SDS011;35317;51.978;6.296;2023-01-28T11:41:36;19.33;;;13.90;;
49440;SDS011;35317;51.978;6.296;2023-01-28T11:46:44;19.40;;;13.43;;
49440;SDS011;35317;51.978;6.296;2023-01-28T12:02:54;19.83;;;13.27;;
49440;SDS011;35317;51.978;6.296;2023-01-28T12:14:18;20.98;;;14.32;;
49440;SDS011;35317;51.978;6.296;2023-01-28T12:30:20;22.63;;;13.52;;
49440;SDS011;35317;51.978;6.296;2023-01-28T12:46:07;19.03;;;13.23;;
49440;SDS011;35317;51.978;6.296;2023-01-28T12:56:54;19.50;;;13.68;;
49440;SDS011;35317;51.978;6.296;2023-01-28T13:02:12;20.80;;;13.23;;
49440;SDS011;35317;51.978;6.296;2023-01-28T13:07:27;18.33;;;13.45;;
49440;SDS011;35317;51.978;6.296;2023-01-28T13:12:38;18.40;;;13.18;;
49440;SDS011;35317;51.978;6.296;2023-01-28T13:17:52;17.08;;;12.02;;
49440;SDS011;35317;51.978;6.296;2023-01-28T13:23:06;14.88;;;11.55;;
49440;SDS011;35317;51.978;6.296;2023-01-28T13:28:45;16.10;;;11.82;;
49440;SDS011;35317;51.978;6.296;2023-01-28T13:39:04;15.43;;;11.18;;
49440;SDS011;35317;51.978;6.296;2023-01-28T13:44:16;14.38;;;11.48;;
49440;SDS011;35317;51.978;6.296;2023-01-28T13:49:27;16.55;;;11.07;;
49440;SDS011;35317;51.978;6.296;2023-01-28T13:54:39;15.48;;;11.00;;
49440;SDS011;35317;51.978;6.296;2023-01-28T14:21:00;17.02;;;12.70;;
49440;SDS011;35317;51.978;6.296;2023-01-28T14:26:14;16.00;;;12.77;;
49440;SDS011;35317;51.978;6.296;2023-01-28T14:31:25;15.38;;;12.10;;
49440;SDS011;35317;51.978;6.296;2023-01-28T14:36:38;19.63;;;12.40;;
49440;SDS011;35317;51.978;6.296;2023-01-28T14:41:41;17.55;;;13.40;;
49440;SDS011;35317;51.978;6.296;2023-01-28T14:46:46;16.92;;;13.25;;
49440;SDS011;35317;51.978;6.296;2023-01-28T14:57:50;16.38;;;12.10;;
49440;SDS011;35317;51.978;6.296;2023-01-28T15:02:56;17.00;;;12.40;;
49440;SDS011;35317;51.978;6.296;2023-01-28T15:07:57;18.73;;;13.40;;
49440;SDS011;35317;51.978;6.296;2023-01-28T15:13:02;17.50;;;12.13;;
49440;SDS011;35317;51.978;6.296;2023-01-28T15:18:20;17.98;;;13.45;;
49440;SDS011;35317;51.978;6.296;2023-01-28T15:23:40;18.58;;;13.10;;
49440;SDS011;35317;51.978;6.296;2023-01-28T15:28:42;18.55;;;12.70;;
49440;SDS011;35317;51.978;6.296;2023-01-28T15:33:44;19.48;;;13.82;;
49440;SDS011;35317;51.978;6.296;2023-01-28T15:38:45;20.30;;;14.07;;
49440;SDS011;35317;51.978;6.296;2023-01-28T15:43:47;22.63;;;13.60;;
49440;SDS011;35317;51.978;6.296;2023-01-28T15:48:53;19.55;;;12.65;;
49440;SDS011;35317;51.978;6.296;2023-01-28T15:54:04;19.17;;;13.43;;
49440;SDS011;35317;51.978;6.296;2023-01-28T16:04:25;23.08;;;14.80;;
49440;SDS011;35317;51.978;6.296;2023-01-28T16:09:31;24.30;;;14.88;;
49440;SDS011;35317;51.978;6.296;2023-01-28T16:14:38;22.55;;;14.57;;
49440;SDS011;35317;51.978;6.296;2023-01-28T16:20:00;24.20;;;15.35;;
49440;SDS011;35317;51.978;6.296;2023-01-28T16:25:23;25.85;;;15.88;;
49440;SDS011;35317;51.978;6.296;2023-01-28T16:30:33;26.83;;;16.40;;
49440;SDS011;35317;51.978;6.296;2023-01-28T16:35:34;32.30;;;17.55;;
49440;SDS011;35317;51.978;6.296;2023-01-28T16:40:35;27.33;;;16.30;;
49440;SDS011;35317;51.978;6.296;2023-01-28T16:45:37;28.90;;;17.02;;
49440;SDS011;35317;51.978;6.296;2023-01-28T16:50:42;29.52;;;18.30;;
49440;SDS011;35317;51.978;6.296;2023-01-28T16:55:43;29.30;;;17.67;;
49440;SDS011;35317;51.978;6.296;2023-01-28T17:00:44;33.03;;;18.55;;
49440;SDS011;35317;51.978;6.296;2023-01-28T17:05:45;27.42;;;17.83;;
49440;SDS011;35317;51.978;6.296;2023-01-28T17:10:49;32.83;;;18.05;;
49440;SDS011;35317;51.978;6.296;2023-01-28T17:15:54;31.05;;;19.73;;
49440;SDS011;35317;51.978;6.296;2023-01-28T17:20:59;31.50;;;19.15;;
49440;SDS011;35317;51.978;6.296;2023-01-28T17:26:10;31.15;;;17.98;;
49440;SDS011;35317;51.978;6.296;2023-01-28T17:31:14;30.85;;;18.85;;
49440;SDS011;35317;51.978;6.296;2023-01-28T17:36:14;31.38;;;18.83;;
49440;SDS011;35317;51.978;6.296;2023-01-28T17:41:15;31.25;;;18.67;;
49440;SDS011;35317;51.978;6.296;2023-01-28T17:46:16;29.38;;;17.30;;
49440;SDS011;35317;51.978;6.296;2023-01-28T17:51:18;29.25;;;17.88;;
49440;SDS011;35317;51.978;6.296;2023-01-28T17:56:20;30.17;;;19.13;;
49440;SDS011;35317;51.978;6.296;2023-01-28T18:01:24;29.33;;;18.17;;
49440;SDS011;35317;51.978;6.296;2023-01-28T18:06:32;30.95;;;18.05;;
49440;SDS011;35317;51.978;6.296;2023-01-28T18:11:34;29.00;;;18.25;;
49440;SDS011;35317;51.978;6.296;2023-01-28T18:16:35;30.40;;;19.23;;
49440;SDS011;35317;51.978;6.296;2023-01-28T18:21:37;32.95;;;19.45;;
49440;SDS011;35317;51.978;6.296;2023-01-28T18:26:40;32.15;;;19.25;;
49440;SDS011;35317;51.978;6.296;2023-01-28T18:31:41;37.83;;;19.60;;
49440;SDS011;35317;51.978;6.296;2023-01-28T18:36:41;32.88;;;20.20;;
49440;SDS011;35317;51.978;6.296;2023-01-28T18:41:42;33.25;;;20.60;;
49440;SDS011;35317;51.978;6.296;2023-01-28T18:46:43;32.47;;;20.70;;
49440;SDS011;35317;51.978;6.296;2023-01-28T18:51:44;38.72;;;21.40;;
49440;SDS011;35317;51.978;6.296;2023-01-28T18:56:45;36.65;;;21.58;;
49440;SDS011;35317;51.978;6.296;2023-01-28T19:01:47;34.23;;;20.77;;
49440;SDS011;35317;51.978;6.296;2023-01-28T19:06:48;32.63;;;19.42;;
49440;SDS011;35317;51.978;6.296;2023-01-28T19:11:55;33.40;;;19.92;;
49440;SDS011;35317;51.978;6.296;2023-01-28T19:16:56;31.52;;;18.92;;
49440;SDS011;35317;51.978;6.296;2023-01-28T19:21:57;32.83;;;19.50;;
49440;SDS011;35317;51.978;6.296;2023-01-28T19:26:57;30.90;;;19.27;;
49440;SDS011;35317;51.978;6.296;2023-01-28T19:31:58;33.38;;;19.38;;
49440;SDS011;35317;51.978;6.296;2023-01-28T19:36:59;31.23;;;19.00;;
49440;SDS011;35317;51.978;6.296;2023-01-28T19:42:00;34.30;;;20.90;;
49440;SDS011;35317;51.978;6.296;2023-01-28T19:47:01;35.92;;;20.75;;
49440;SDS011;35317;51.978;6.296;2023-01-28T19:52:02;36.30;;;21.92;;
49440;SDS011;35317;51.978;6.296;2023-01-28T19:57:02;36.92;;;21.67;;
49440;SDS011;35317;51.978;6.296;2023-01-28T20:02:03;38.13;;;20.52;;
49440;SDS011;35317;51.978;6.296;2023-01-28T20:07:04;37.65;;;21.20;;
49440;SDS011;35317;51.978;6.296;2023-01-28T20:12:05;38.95;;;21.25;;
49440;SDS011;35317;51.978;6.296;2023-01-28T20:17:10;37.58;;;21.60;;
49440;SDS011;35317;51.978;6.296;2023-01-28T20:22:11;34.22;;;20.30;;
49440;SDS011;35317;51.978;6.296;2023-01-28T20:27:12;40.22;;;22.83;;
49440;SDS011;35317;51.978;6.296;2023-01-28T20:32:13;36.72;;;21.60;;
49440;SDS011;35317;51.978;6.296;2023-01-28T20:37:14;39.75;;;22.15;;
49440;SDS011;35317;51.978;6.296;2023-01-28T20:42:14;36.50;;;21.13;;
49440;SDS011;35317;51.978;6.296;2023-01-28T20:47:15;38.85;;;22.13;;
49440;SDS011;35317;51.978;6.296;2023-01-28T20:52:16;37.92;;;21.63;;
49440;SDS011;35317;51.978;6.296;2023-01-28T20:57:17;37.20;;;20.67;;
49440;SDS011;35317;51.978;6.296;2023-01-28T21:02:18;39.20;;;21.25;;
49440;SDS011;35317;51.978;6.296;2023-01-28T21:07:18;35.67;;;20.80;;
49440;SDS011;35317;51.978;6.296;2023-01-28T21:12:19;41.45;;;22.20;;
49440;SDS011;35317;51.978;6.296;2023-01-28T21:17:20;40.47;;;22.40;;
49440;SDS011;35317;51.978;6.296;2023-01-28T21:22:21;41.95;;;21.88;;
49440;SDS011;35317;51.978;6.296;2023-01-28T21:27:21;39.40;;;21.42;;
49440;SDS011;35317;51.978;6.296;2023-01-28T21:32:22;40.45;;;22.45;;
49440;SDS011;35317;51.978;6.296;2023-01-28T21:37:24;37.20;;;20.70;;
49440;SDS011;35317;51.978;6.296;2023-01-28T21:42:25;39.20;;;21.60;;
49440;SDS011;35317;51.978;6.296;2023-01-28T21:47:26;38.58;;;21.42;;
49440;SDS011;35317;51.978;6.296;2023-01-28T21:52:26;38.80;;;21.73;;
49440;SDS011;35317;51.978;6.296;2023-01-28T21:57:27;35.88;;;20.58;;
49440;SDS011;35317;51.978;6.296;2023-01-28T22:02:28;38.95;;;21.38;;
49440;SDS011;35317;51.978;6.296;2023-01-28T22:07:28;40.45;;;22.42;;
49440;SDS011;35317;51.978;6.296;2023-01-28T22:12:29;37.45;;;21.40;;
49440;SDS011;35317;51.978;6.296;2023-01-28T22:17:30;38.97;;;21.50;;
49440;SDS011;35317;51.978;6.296;2023-01-28T22:22:31;37.28;;;20.15;;
49440;SDS011;35317;51.978;6.296;2023-01-28T22:27:31;40.03;;;20.08;;
49440;SDS011;35317;51.978;6.296;2023-01-28T22:32:32;37.38;;;20.50;;
49440;SDS011;35317;51.978;6.296;2023-01-28T22:37:33;39.75;;;20.83;;
49440;SDS011;35317;51.978;6.296;2023-01-28T22:42:34;36.03;;;20.63;;
49440;SDS011;35317;51.978;6.296;2023-01-28T22:47:34;36.45;;;20.38;;
49440;SDS011;35317;51.978;6.296;2023-01-28T22:52:35;47.20;;;22.13;;
49440;SDS011;35317;51.978;6.296;2023-01-28T22:57:36;38.10;;;20.38;;
49440;SDS011;35317;51.978;6.296;2023-01-28T23:02:37;40.17;;;21.17;;
49440;SDS011;35317;51.978;6.296;2023-01-28T23:07:37;40.92;;;20.55;;
49440;SDS011;35317;51.978;6.296;2023-01-28T23:12:38;41.42;;;21.42;;
49440;SDS011;35317;51.978;6.296;2023-01-28T23:17:39;37.88;;;19.90;;
49440;SDS011;35317;51.978;6.296;2023-01-28T23:22:58;36.33;;;19.67;;
49440;SDS011;35317;51.978;6.296;2023-01-28T23:28:17;38.72;;;20.77;;
49440;SDS011;35317;51.978;6.296;2023-01-28T23:33:18;38.42;;;20.17;;
49440;SDS011;35317;51.978;6.296;2023-01-28T23:38:19;38.28;;;20.33;;
49440;SDS011;35317;51.978;6.296;2023-01-28T23:43:20;38.35;;;19.85;;
49440;SDS011;35317;51.978;6.296;2023-01-28T23:48:21;40.25;;;21.10;;
49440;SDS011;35317;51.978;6.296;2023-01-28T23:53:21;35.92;;;19.73;;
49440;SDS011;35317;51.978;6.296;2023-01-28T23:58:22;37.22;;;19.42;;
